createdAt,value
2019-01-06T00:00:03.732Z,17.57
2019-01-06T00:02:52.602Z,17.57
2019-01-06T00:05:44.440Z,16.30
2019-01-06T00:08:28.235Z,16.65
2019-01-06T00:11:28.245Z,16.67
2019-01-06T00:14:15.147Z,16.17
2019-01-06T00:17:06.399Z,15.40
2019-01-06T00:20:01.006Z,16.85
2019-01-06T00:22:50.056Z,17.10
2019-01-06T00:25:45.840Z,17.00
2019-01-06T00:28:40.740Z,17.07
2019-01-06T00:31:38.520Z,17.77
2019-01-06T00:34:27.586Z,17.10
2019-01-06T00:37:28.457Z,16.12
2019-01-06T00:40:17.197Z,15.60
2019-01-06T00:43:04.557Z,16.90
2019-01-06T00:45:56.044Z,15.83
2019-01-06T00:48:54.200Z,16.80
2019-01-06T00:51:41.375Z,14.87
2019-01-06T00:54:38.981Z,14.68
2019-01-06T00:57:27.768Z,15.45
2019-01-06T01:00:16.766Z,15.08
2019-01-06T01:03:03.820Z,15.55
2019-01-06T01:05:51.502Z,16.35
2019-01-06T01:08:50.039Z,16.20
2019-01-06T01:11:38.347Z,15.80
2019-01-06T01:14:32.260Z,15.83
2019-01-06T01:17:21.597Z,15.70
2019-01-06T01:20:13.060Z,15.85
2019-01-06T01:22:56.853Z,15.75
2019-01-06T01:25:58.060Z,15.30
2019-01-06T01:28:45.222Z,14.55
2019-01-06T01:31:34.271Z,15.35
2019-01-06T01:34:17.171Z,16.55
2019-01-06T01:37:20.795Z,16.87
2019-01-06T01:40:24.393Z,16.05
2019-01-06T01:43:15.952Z,15.10
2019-01-06T01:45:58.428Z,17.20
2019-01-06T01:48:45.921Z,16.32
2019-01-06T01:51:49.815Z,15.35
2019-01-06T01:54:36.984Z,16.05
2019-01-06T01:57:24.032Z,15.75
2019-01-06T02:00:12.108Z,15.48
2019-01-06T02:03:10.306Z,15.80
2019-01-06T02:05:59.086Z,16.05
2019-01-06T02:08:46.528Z,15.72
2019-01-06T02:11:28.299Z,16.20
2019-01-06T02:14:23.155Z,16.00
2019-01-06T02:17:10.319Z,15.15
2019-01-06T02:19:57.551Z,15.83
2019-01-06T02:22:44.379Z,15.72
2019-01-06T02:25:31.426Z,14.30
2019-01-06T02:28:19.231Z,14.53
2019-01-06T02:31:20.148Z,15.88
2019-01-06T02:34:17.976Z,15.15
2019-01-06T02:37:12.511Z,14.65
2019-01-06T02:40:02.013Z,15.35
2019-01-06T02:42:47.718Z,15.38
2019-01-06T02:45:50.664Z,14.20
2019-01-06T02:48:39.680Z,16.77
2019-01-06T02:51:26.989Z,15.68
2019-01-06T02:54:14.121Z,15.23
2019-01-06T02:57:01.136Z,15.53
2019-01-06T02:59:48.373Z,15.63
2019-01-06T03:02:35.759Z,16.80
2019-01-06T03:05:23.094Z,16.17
2019-01-06T03:08:16.503Z,14.80
2019-01-06T03:11:17.282Z,16.40
2019-01-06T03:14:05.099Z,15.58
2019-01-06T03:16:52.481Z,14.78
2019-01-06T03:19:42.545Z,14.58
2019-01-06T03:22:37.092Z,15.70
2019-01-06T03:25:22.592Z,14.30
2019-01-06T03:28:17.503Z,14.90
2019-01-06T03:31:05.091Z,13.95
2019-01-06T03:33:59.849Z,14.33
2019-01-06T03:37:00.855Z,14.58
2019-01-06T03:40:01.453Z,14.80
2019-01-06T03:43:01.695Z,13.95
2019-01-06T03:45:58.971Z,13.40
2019-01-06T03:48:50.372Z,13.83
2019-01-06T03:51:37.900Z,14.33
2019-01-06T03:54:24.739Z,13.58
2019-01-06T03:57:12.375Z,14.00
2019-01-06T04:00:03.809Z,13.45
2019-01-06T04:02:50.971Z,13.35
2019-01-06T04:05:38.774Z,13.00
2019-01-06T04:08:39.746Z,13.25
2019-01-06T04:11:38.659Z,13.90
2019-01-06T04:14:25.740Z,12.45
2019-01-06T04:17:29.431Z,12.88
2019-01-06T04:20:24.170Z,11.08
2019-01-06T04:23:11.994Z,12.25
2019-01-06T04:25:59.315Z,12.65
2019-01-06T04:29:00.116Z,11.75
2019-01-06T04:31:47.472Z,13.22
2019-01-06T04:34:42.883Z,12.25
2019-01-06T04:37:30.819Z,11.97
2019-01-06T04:40:22.351Z,11.95
2019-01-06T04:43:00.751Z,12.10
2019-01-06T04:45:55.558Z,11.75
2019-01-06T04:48:36.328Z,10.50
2019-01-06T04:51:23.460Z,11.20
2019-01-06T04:54:10.617Z,10.75
2019-01-06T04:57:06.532Z,9.68
2019-01-06T05:00:04.676Z,11.22
2019-01-06T05:02:51.850Z,10.40
2019-01-06T05:05:46.639Z,11.05
2019-01-06T05:08:35.470Z,11.75
2019-01-06T05:11:32.749Z,11.10
2019-01-06T05:14:33.563Z,11.25
2019-01-06T05:17:37.142Z,11.45
2019-01-06T05:20:30.417Z,11.20
2019-01-06T05:23:15.242Z,11.28
2019-01-06T05:25:59.747Z,11.05
2019-01-06T05:28:46.993Z,12.35
2019-01-06T05:31:34.180Z,12.05
2019-01-06T05:34:21.827Z,11.45
2019-01-06T05:37:06.990Z,11.97
2019-01-06T05:39:55.744Z,10.13
2019-01-06T05:42:43.019Z,11.20
2019-01-06T05:45:33.945Z,11.50
2019-01-06T05:48:31.479Z,11.12
2019-01-06T05:51:18.849Z,10.78
2019-01-06T05:54:06.206Z,11.35
2019-01-06T05:57:07.145Z,11.40
2019-01-06T06:00:02.196Z,11.90
2019-01-06T06:02:48.508Z,12.20
2019-01-06T06:05:40.368Z,12.47
2019-01-06T06:08:40.994Z,12.98
2019-01-06T06:11:27.891Z,12.35
2019-01-06T06:14:15.919Z,12.03
2019-01-06T06:17:03.289Z,13.32
2019-01-06T06:19:51.772Z,13.10
2019-01-06T06:22:39.280Z,13.05
2019-01-06T06:25:26.641Z,13.70
2019-01-06T06:28:11.303Z,12.50
2019-01-06T06:30:50.224Z,12.07
2019-01-06T06:33:45.663Z,12.13
2019-01-06T06:36:33.053Z,13.48
2019-01-06T06:39:27.958Z,13.38
2019-01-06T06:42:25.775Z,13.45
2019-01-06T06:45:17.557Z,14.03
2019-01-06T06:48:09.267Z,14.55
2019-01-06T06:51:10.479Z,13.65
2019-01-06T06:53:55.509Z,14.15
2019-01-06T06:56:56.641Z,14.38
2019-01-06T06:59:44.025Z,13.95
2019-01-06T07:03:01.484Z,14.58
2019-01-06T07:05:47.487Z,14.65
2019-01-06T07:08:35.148Z,13.08
2019-01-06T07:11:19.161Z,13.95
2019-01-06T07:14:06.836Z,15.18
2019-01-06T07:17:36.555Z,13.70
2019-01-06T07:20:31.501Z,13.30
2019-01-06T07:23:18.866Z,14.15
2019-01-06T07:26:07.590Z,15.10
2019-01-06T07:29:04.029Z,14.50
2019-01-06T07:32:04.671Z,13.88
2019-01-06T07:34:52.103Z,14.80
2019-01-06T07:37:39.134Z,15.85
2019-01-06T07:40:34.423Z,14.55
2019-01-06T07:43:32.323Z,14.68
2019-01-06T07:46:19.700Z,14.58
2019-01-06T07:49:07.217Z,15.00
2019-01-06T07:51:52.392Z,13.93
2019-01-06T07:54:47.162Z,13.30
2019-01-06T07:57:29.434Z,12.93
2019-01-06T08:00:26.726Z,14.13
2019-01-06T08:03:15.743Z,21.95
2019-01-06T08:06:10.462Z,18.37
2019-01-06T08:08:57.678Z,15.93
2019-01-06T08:11:46.083Z,16.42
2019-01-06T08:14:33.402Z,16.97
2019-01-06T08:17:28.188Z,16.90
2019-01-06T08:20:15.714Z,24.20
2019-01-06T08:23:08.406Z,17.70
2019-01-06T08:25:58.187Z,16.15
2019-01-06T08:28:58.979Z,17.70
2019-01-06T08:31:47.713Z,27.22
2019-01-06T08:34:34.815Z,23.90
2019-01-06T08:37:22.251Z,23.50
2019-01-06T08:40:20.386Z,23.75
2019-01-06T08:43:20.958Z,16.35
2019-01-06T08:46:18.672Z,15.03
2019-01-06T08:49:13.192Z,17.98
2019-01-06T08:51:59.883Z,20.23
2019-01-06T08:54:47.057Z,18.60
2019-01-06T08:57:34.144Z,15.15
2019-01-06T09:00:25.403Z,18.95
2019-01-06T09:03:26.244Z,34.88
2019-01-06T09:06:17.520Z,24.32
2019-01-06T09:08:58.697Z,36.90
2019-01-06T09:11:49.915Z,16.02
2019-01-06T09:14:53.819Z,22.75
2019-01-06T09:17:41.356Z,18.12
2019-01-06T09:20:24.816Z,19.95
2019-01-06T09:23:25.074Z,18.10
2019-01-06T09:26:12.545Z,16.90
2019-01-06T09:28:59.680Z,19.40
2019-01-06T09:31:46.299Z,16.67
2019-01-06T09:34:37.144Z,14.80
2019-01-06T09:37:38.134Z,24.23
2019-01-06T09:40:42.227Z,24.00
2019-01-06T09:43:36.968Z,17.10
2019-01-06T09:46:20.167Z,16.95
2019-01-06T09:49:06.971Z,18.85
2019-01-06T09:52:07.851Z,17.17
2019-01-06T09:54:55.083Z,19.45
2019-01-06T09:57:52.983Z,20.08
2019-01-06T10:00:41.446Z,15.95
2019-01-06T10:03:29.189Z,18.37
2019-01-06T10:06:18.243Z,15.58
2019-01-06T10:09:08.510Z,15.45
2019-01-06T10:11:51.958Z,15.00
2019-01-06T10:14:38.783Z,14.95
2019-01-06T10:17:26.164Z,17.05
2019-01-06T10:20:14.694Z,16.73
2019-01-06T10:23:19.744Z,16.73
2019-01-06T10:26:07.213Z,19.50
2019-01-06T10:29:02.990Z,13.80
2019-01-06T10:31:50.103Z,15.48
2019-01-06T10:34:41.451Z,14.50
2019-01-06T10:37:36.249Z,17.65
2019-01-06T10:40:24.775Z,16.50
2019-01-06T10:43:19.262Z,14.63
2019-01-06T10:46:11.215Z,27.58
2019-01-06T10:49:00.324Z,18.70
2019-01-06T10:52:00.923Z,15.13
2019-01-06T10:54:55.126Z,15.60
2019-01-06T10:58:38.859Z,16.45
2019-01-06T11:01:25.841Z,16.00
2019-01-06T11:04:12.643Z,14.28
2019-01-06T11:07:10.406Z,15.80
2019-01-06T11:09:51.147Z,22.75
2019-01-06T11:12:38.919Z,26.90
2019-01-06T11:15:26.086Z,23.77
2019-01-06T11:18:14.840Z,21.87
2019-01-06T11:21:03.617Z,18.77
2019-01-06T11:23:50.544Z,17.70
2019-01-06T11:26:38.231Z,20.30
2019-01-06T11:29:25.364Z,19.20
2019-01-06T11:32:22.984Z,18.27
2019-01-06T11:35:11.873Z,19.27
2019-01-06T11:37:59.009Z,16.00
2019-01-06T11:40:51.047Z,17.57
2019-01-06T11:43:43.197Z,17.67
2019-01-06T11:46:22.395Z,17.57
2019-01-06T11:49:14.027Z,18.00
2019-01-06T11:52:10.149Z,19.35
2019-01-06T11:54:58.055Z,18.05
2019-01-06T11:57:58.702Z,17.23
2019-01-06T12:00:53.867Z,17.70
2019-01-06T12:03:37.867Z,16.52
2019-01-06T12:06:29.795Z,16.87
2019-01-06T12:09:07.842Z,17.60
2019-01-06T12:11:55.400Z,17.00
2019-01-06T12:14:44.190Z,17.77
2019-01-06T12:17:31.696Z,19.23
2019-01-06T12:20:16.965Z,18.15
2019-01-06T12:23:04.286Z,18.17
2019-01-06T12:25:51.691Z,17.02
2019-01-06T12:28:38.498Z,17.12
2019-01-06T12:31:42.131Z,18.35
2019-01-06T12:34:30.884Z,19.32
2019-01-06T12:37:22.675Z,16.20
2019-01-06T12:40:04.527Z,18.95
2019-01-06T12:42:52.052Z,18.67
2019-01-06T12:45:41.146Z,26.07
2019-01-06T12:48:30.819Z,20.05
2019-01-06T12:51:17.963Z,21.80
2019-01-06T12:54:15.999Z,18.25
2019-01-06T12:57:08.059Z,24.20
2019-01-06T12:59:55.316Z,22.20
2019-01-06T13:02:47.805Z,23.25
2019-01-06T13:05:35.008Z,18.37
2019-01-06T13:08:23.144Z,17.52
2019-01-06T13:11:12.033Z,21.37
2019-01-06T13:13:59.530Z,21.50
2019-01-06T13:17:04.430Z,18.75
2019-01-06T13:19:52.490Z,18.62
2019-01-06T13:22:42.400Z,18.80
2019-01-06T13:25:51.033Z,20.17
2019-01-06T13:28:55.702Z,19.80
2019-01-06T13:31:55.668Z,17.73
2019-01-06T13:34:53.580Z,24.27
2019-01-06T13:38:00.396Z,19.80
2019-01-06T13:40:47.795Z,18.82
2019-01-06T13:43:35.472Z,17.42
2019-01-06T13:46:32.918Z,17.00
2019-01-06T13:49:26.286Z,18.25
2019-01-06T13:52:15.025Z,16.82
2019-01-06T13:55:04.088Z,16.15
2019-01-06T13:58:01.797Z,16.10
2019-01-06T14:00:48.608Z,17.82
2019-01-06T14:03:36.120Z,17.42
2019-01-06T14:06:23.837Z,16.55
2019-01-06T14:09:11.366Z,15.58
2019-01-06T14:11:59.202Z,16.82
2019-01-06T14:14:54.392Z,18.32
2019-01-06T14:17:42.144Z,17.10
2019-01-06T14:20:33.707Z,19.23
2019-01-06T14:23:20.992Z,19.15
2019-01-06T14:26:09.740Z,18.35
2019-01-06T14:29:00.672Z,19.85
2019-01-06T14:31:48.167Z,19.77
2019-01-06T14:34:35.837Z,20.75
2019-01-06T14:37:23.525Z,20.40
2019-01-06T14:40:12.056Z,20.80
2019-01-06T14:42:59.922Z,20.72
2019-01-06T14:46:04.937Z,19.48
2019-01-06T14:48:52.707Z,25.90
2019-01-06T14:51:40.082Z,26.75
2019-01-06T14:54:27.437Z,24.43
2019-01-06T14:57:28.131Z,47.03
2019-01-06T15:00:15.809Z,24.52
2019-01-06T15:03:02.835Z,20.60
2019-01-06T15:05:54.804Z,21.07
2019-01-06T15:08:42.021Z,18.55
2019-01-06T15:11:39.338Z,20.23
2019-01-06T15:14:26.808Z,23.07
2019-01-06T15:17:26.291Z,21.15
2019-01-06T15:20:20.817Z,19.55
2019-01-06T15:23:07.952Z,23.45
2019-01-06T15:25:56.784Z,21.45
2019-01-06T15:28:53.322Z,30.72
2019-01-06T15:31:33.856Z,21.57
2019-01-06T15:34:21.544Z,22.75
2019-01-06T15:37:09.246Z,18.80
2019-01-06T15:39:58.439Z,19.62
2019-01-06T15:43:02.052Z,18.65
2019-01-06T15:45:53.870Z,18.65
2019-01-06T15:48:41.406Z,18.80
2019-01-06T15:51:42.529Z,18.75
2019-01-06T15:54:30.076Z,20.15
2019-01-06T15:57:21.694Z,19.20
2019-01-06T16:00:22.519Z,18.75
2019-01-06T16:03:20.309Z,25.90
2019-01-06T16:06:18.218Z,23.62
2019-01-06T16:09:05.254Z,22.80
2019-01-06T16:12:09.474Z,30.10
2019-01-06T16:14:56.846Z,24.87
2019-01-06T16:17:44.549Z,25.80
2019-01-06T16:20:33.352Z,36.98
2019-01-06T16:23:20.828Z,36.08
2019-01-06T16:26:05.405Z,25.35
2019-01-06T16:28:57.672Z,22.90
2019-01-06T16:31:46.175Z,23.60
2019-01-06T16:34:40.846Z,26.48
2019-01-06T16:37:28.999Z,26.48
2019-01-06T16:40:16.111Z,29.02
2019-01-06T16:43:08.224Z,44.27
2019-01-06T16:45:52.294Z,29.35
2019-01-06T16:48:39.449Z,31.07
2019-01-06T16:51:26.814Z,30.10
2019-01-06T16:54:21.059Z,23.57
2019-01-06T16:57:24.716Z,27.55
2019-01-06T17:00:11.976Z,29.70
2019-01-06T17:02:50.966Z,25.10
2019-01-06T17:05:44.470Z,24.00
2019-01-06T17:08:34.857Z,19.32
2019-01-06T17:11:18.359Z,21.93
2019-01-06T17:14:10.074Z,26.50
2019-01-06T17:17:18.294Z,26.50
2019-01-06T17:20:07.527Z,23.47
2019-01-06T17:22:54.798Z,21.55
2019-01-06T17:26:02.090Z,24.12
2019-01-06T17:28:50.424Z,22.52
2019-01-06T17:31:39.266Z,26.45
2019-01-06T17:34:40.181Z,28.10
2019-01-06T17:37:40.754Z,19.52
2019-01-06T17:40:44.964Z,19.12
2019-01-06T17:43:34.991Z,18.20
2019-01-06T17:46:20.439Z,21.27
2019-01-06T17:49:07.994Z,19.17
2019-01-06T17:52:09.020Z,20.45
2019-01-06T17:54:57.041Z,20.32
2019-01-06T17:58:00.540Z,20.43
2019-01-06T18:00:49.027Z,21.55
2019-01-06T18:03:36.839Z,22.35
2019-01-06T18:06:23.808Z,25.08
2019-01-06T18:09:13.271Z,22.25
2019-01-06T18:12:04.199Z,24.80
2019-01-06T18:14:51.707Z,24.87
2019-01-06T18:17:38.877Z,27.65
2019-01-06T18:20:40.103Z,21.33
2019-01-06T18:23:27.835Z,24.87
2019-01-06T18:26:34.869Z,21.65
2019-01-06T18:29:28.828Z,36.30
2019-01-06T18:32:16.140Z,25.85
2019-01-06T18:35:07.684Z,29.07
2019-01-06T18:37:59.634Z,25.30
2019-01-06T18:41:03.376Z,26.52
2019-01-06T18:43:51.162Z,25.68
2019-01-06T18:46:38.446Z,25.00
2019-01-06T18:49:27.217Z,23.52
2019-01-06T18:52:13.747Z,29.60
2019-01-06T18:55:01.265Z,23.80
2019-01-06T18:58:05.379Z,37.10
2019-01-06T19:00:57.238Z,25.10
2019-01-06T19:03:44.149Z,26.85
2019-01-06T19:06:25.144Z,23.45
2019-01-06T19:09:13.368Z,22.30
2019-01-06T19:12:05.443Z,24.92
2019-01-06T19:15:06.207Z,23.50
2019-01-06T19:18:01.352Z,24.12
2019-01-06T19:20:48.939Z,26.05
2019-01-06T19:23:55.124Z,68.07
2019-01-06T19:26:53.692Z,103.22
2019-01-06T19:29:45.512Z,98.90
2019-01-06T19:32:33.323Z,49.77
2019-01-06T19:35:20.577Z,32.45
2019-01-06T19:38:08.755Z,34.78
2019-01-06T19:40:57.025Z,28.12
2019-01-06T19:43:44.079Z,65.15
2019-01-06T19:46:31.713Z,42.30
2019-01-06T19:49:19.712Z,29.15
2019-01-06T19:52:13.020Z,50.63
2019-01-06T19:55:09.060Z,29.70
2019-01-06T19:57:56.476Z,32.28
2019-01-06T20:00:45.828Z,35.25
2019-01-06T20:03:33.360Z,33.80
2019-01-06T20:06:21.151Z,27.27
2019-01-06T20:09:10.421Z,26.35
2019-01-06T20:11:57.999Z,36.55
2019-01-06T20:14:54.907Z,27.67
2019-01-06T20:17:50.069Z,35.88
2019-01-06T20:20:34.587Z,20.92
2019-01-06T20:23:32.273Z,17.35
2019-01-06T20:26:19.948Z,16.85
2019-01-06T20:29:08.246Z,23.40
2019-01-06T20:32:00.721Z,18.10
2019-01-06T20:34:48.432Z,20.48
2019-01-06T20:37:55.518Z,18.10
2019-01-06T20:40:45.084Z,21.55
2019-01-06T20:43:39.780Z,27.37
2019-01-06T20:46:37.718Z,19.45
2019-01-06T20:49:29.527Z,21.77
2019-01-06T20:52:24.505Z,21.52
2019-01-06T20:55:16.887Z,19.25
2019-01-06T20:58:17.605Z,20.08
2019-01-06T21:01:16.482Z,23.83
2019-01-06T21:04:17.503Z,19.20
2019-01-06T21:07:06.904Z,20.35
2019-01-06T21:10:08.842Z,32.70
2019-01-06T21:13:13.182Z,29.23
2019-01-06T21:16:20.082Z,31.02
2019-01-06T21:18:59.520Z,23.80
2019-01-06T21:21:47.682Z,19.15
2019-01-06T21:24:35.991Z,18.35
2019-01-06T21:27:23.875Z,18.42
2019-01-06T21:30:19.356Z,13.58
2019-01-06T21:33:07.902Z,30.88
2019-01-06T21:35:55.474Z,16.48
2019-01-06T21:38:43.959Z,15.40
2019-01-06T21:41:44.828Z,16.07
2019-01-06T21:44:36.705Z,13.72
2019-01-06T21:47:34.520Z,13.75
2019-01-06T21:50:24.043Z,13.28
2019-01-06T21:53:12.817Z,14.60
2019-01-06T21:56:19.548Z,15.60
2019-01-06T21:59:25.662Z,15.45
2019-01-06T22:02:23.256Z,14.53
2019-01-06T22:05:10.435Z,14.00
2019-01-06T22:07:57.414Z,15.15
2019-01-06T22:10:48.746Z,14.35
2019-01-06T22:13:40.603Z,15.38
2019-01-06T22:16:38.368Z,16.75
2019-01-06T22:19:33.252Z,16.27
2019-01-06T22:22:20.639Z,17.32
2019-01-06T22:25:14.963Z,16.62
2019-01-06T22:28:02.358Z,16.05
2019-01-06T22:30:51.415Z,16.10
2019-01-06T22:33:58.645Z,15.95
2019-01-06T22:36:53.791Z,16.30
2019-01-06T22:39:42.578Z,18.90
2019-01-06T22:42:30.014Z,17.85
2019-01-06T22:45:33.945Z,17.77
2019-01-06T22:48:21.219Z,17.95
2019-01-06T22:51:10.299Z,16.62
2019-01-06T22:54:14.311Z,17.23
2019-01-06T22:57:09.109Z,17.95
2019-01-06T22:59:57.872Z,16.57
2019-01-06T23:02:55.777Z,16.67
2019-01-06T23:05:47.407Z,17.52
2019-01-06T23:08:36.443Z,17.32
2019-01-06T23:11:23.335Z,15.95
2019-01-06T23:14:10.508Z,15.95
2019-01-06T23:16:50.540Z,16.80
2019-01-06T23:19:42.377Z,15.90
2019-01-06T23:22:29.749Z,14.55
2019-01-06T23:25:21.350Z,15.83
2019-01-06T23:28:12.664Z,15.43
2019-01-06T23:31:00.234Z,15.40
2019-01-06T23:33:55.082Z,16.82
2019-01-06T23:36:49.713Z,16.17
2019-01-06T23:39:47.292Z,15.98
2019-01-06T23:42:34.635Z,15.20
2019-01-06T23:45:22.227Z,15.65
2019-01-06T23:48:10.214Z,15.65
2019-01-06T23:51:08.624Z,15.85
2019-01-06T23:53:57.729Z,16.62
2019-01-06T23:57:01.774Z,19.50
2019-01-06T23:59:46.638Z,19.40
